sensor_id;sensor_type;location;lat;lon;timestamp;pressure;altitude;pressure_sealevel;temperature;humidity
2841;BME280;53423;49.224;12.074;2023-04-21T00:00:43;97431.44;;;9.48;68.27
2841;BME280;53423;49.224;12.074;2023-04-21T00:03:10;97430.44;;;9.41;68.25
2841;BME280;53423;49.224;12.074;2023-04-21T00:05:40;97430.44;;;9.41;67.75
2841;BME280;53423;49.224;12.074;2023-04-21T00:08:09;97422.09;;;9.38;67.57
2841;BME280;53423;49.224;12.074;2023-04-21T00:10:36;97428.16;;;9.46;67.70
2841;BME280;53423;49.224;12.074;2023-04-21T00:13:04;97433.38;;;9.38;67.40
2841;BME280;53423;49.224;12.074;2023-04-21T00:15:32;97426.50;;;9.21;67.73
2841;BME280;53423;49.224;12.074;2023-04-21T00:18:01;97423.72;;;9.15;67.89
2841;BME280;53423;49.224;12.074;2023-04-21T00:20:29;97419.78;;;9.11;68.32
2841;BME280;53423;49.224;12.074;2023-04-21T00:22:59;97418.81;;;9.20;68.30
2841;BME280;53423;49.224;12.074;2023-04-21T00:25:27;97420.94;;;9.24;67.86
2841;BME280;53423;49.224;12.074;2023-04-21T00:27:54;97412.94;;;9.18;67.74
2841;BME280;53423;49.224;12.074;2023-04-21T00:30:22;97416.88;;;9.22;67.86
2841;BME280;53423;49.224;12.074;2023-04-21T00:32:50;97418.66;;;9.21;67.98
2841;BME280;53423;49.224;12.074;2023-04-21T00:35:18;97412.75;;;9.11;67.52
2841;BME280;53423;49.224;12.074;2023-04-21T00:37:46;97412.94;;;9.02;68.19
2841;BME280;53423;49.224;12.074;2023-04-21T00:40:17;97412.75;;;8.95;69.11
2841;BME280;53423;49.224;12.074;2023-04-21T00:42:45;97412.25;;;9.00;69.81
2841;BME280;53423;49.224;12.074;2023-04-21T00:45:12;97417.00;;;8.96;68.96
2841;BME280;53423;49.224;12.074;2023-04-21T00:47:42;97413.56;;;8.96;68.06
2841;BME280;53423;49.224;12.074;2023-04-21T00:50:10;97417.94;;;8.87;67.70
2841;BME280;53423;49.224;12.074;2023-04-21T00:52:39;97416.50;;;8.93;68.19
2841;BME280;53423;49.224;12.074;2023-04-21T00:55:08;97421.72;;;8.93;67.97
2841;BME280;53423;49.224;12.074;2023-04-21T00:57:37;97407.47;;;8.79;66.87
2841;BME280;53423;49.224;12.074;2023-04-21T01:00:06;97412.72;;;8.79;67.94
2841;BME280;53423;49.224;12.074;2023-04-21T01:02:37;97405.06;;;8.94;68.51
2841;BME280;53423;49.224;12.074;2023-04-21T01:05:07;97407.53;;;8.95;68.59
2841;BME280;53423;49.224;12.074;2023-04-21T01:07:36;97401.16;;;8.98;68.40
2841;BME280;53423;49.224;12.074;2023-04-21T01:10:04;97404.41;;;8.84;68.39
2841;BME280;53423;49.224;12.074;2023-04-21T01:12:32;97409.94;;;8.80;68.86
2841;BME280;53423;49.224;12.074;2023-04-21T01:15:10;97404.91;;;8.95;68.83
2841;BME280;53423;49.224;12.074;2023-04-21T01:17:38;97412.75;;;8.95;69.45
2841;BME280;53423;49.224;12.074;2023-04-21T01:20:09;97419.91;;;8.85;69.91
2841;BME280;53423;49.224;12.074;2023-04-21T01:22:40;97414.38;;;8.88;69.57
2841;BME280;53423;49.224;12.074;2023-04-21T01:25:08;97417.31;;;8.85;69.68
2841;BME280;53423;49.224;12.074;2023-04-21T01:27:36;97417.47;;;8.92;69.62
2841;BME280;53423;49.224;12.074;2023-04-21T01:30:06;97422.72;;;9.00;69.20
2841;BME280;53423;49.224;12.074;2023-04-21T01:32:34;97422.22;;;8.96;68.36
2841;BME280;53423;49.224;12.074;2023-04-21T01:35:02;97420.91;;;8.92;67.74
2841;BME280;53423;49.224;12.074;2023-04-21T01:37:32;97424.00;;;8.88;67.70
2841;BME280;53423;49.224;12.074;2023-04-21T01:40:04;97429.22;;;8.79;67.26
2841;BME280;53423;49.224;12.074;2023-04-21T01:42:36;97425.09;;;8.69;68.31
2841;BME280;53423;49.224;12.074;2023-04-21T01:45:05;97423.94;;;8.63;68.69
2841;BME280;53423;49.224;12.074;2023-04-21T01:47:34;97433.94;;;8.76;69.14
2841;BME280;53423;49.224;12.074;2023-04-21T01:50:02;97437.34;;;8.68;68.63
2841;BME280;53423;49.224;12.074;2023-04-21T01:52:30;97429.31;;;8.62;68.64
2841;BME280;53423;49.224;12.074;2023-04-21T01:54:58;97433.09;;;8.67;68.77
2841;BME280;53423;49.224;12.074;2023-04-21T01:57:28;97426.84;;;8.60;68.53
2841;BME280;53423;49.224;12.074;2023-04-21T01:59:56;97431.00;;;8.29;67.95
2841;BME280;53423;49.224;12.074;2023-04-21T02:02:24;97429.22;;;8.30;68.01
2841;BME280;53423;49.224;12.074;2023-04-21T02:04:52;97431.53;;;8.41;68.44
2841;BME280;53423;49.224;12.074;2023-04-21T02:07:20;97420.44;;;8.47;67.87
2841;BME280;53423;49.224;12.074;2023-04-21T02:09:48;97414.63;;;8.61;67.73
2841;BME280;53423;49.224;12.074;2023-04-21T02:12:16;97420.28;;;8.48;67.18
2841;BME280;53423;49.224;12.074;2023-04-21T02:14:45;97427.75;;;8.35;67.61
2841;BME280;53423;49.224;12.074;2023-04-21T02:17:14;97424.53;;;8.41;68.34
2841;BME280;53423;49.224;12.074;2023-04-21T02:19:43;97438.38;;;8.42;68.62
2841;BME280;53423;49.224;12.074;2023-04-21T02:22:11;97439.00;;;8.36;68.18
2841;BME280;53423;49.224;12.074;2023-04-21T02:24:39;97432.34;;;8.41;68.31
2841;BME280;53423;49.224;12.074;2023-04-21T02:27:07;97435.81;;;8.50;67.71
2841;BME280;53423;49.224;12.074;2023-04-21T02:29:35;97438.91;;;8.20;66.77
2841;BME280;53423;49.224;12.074;2023-04-21T02:32:04;97447.50;;;8.12;66.77
2841;BME280;53423;49.224;12.074;2023-04-21T02:34:50;97453.09;;;7.92;68.06
2841;BME280;53423;49.224;12.074;2023-04-21T02:37:18;97443.84;;;7.97;69.20
2841;BME280;53423;49.224;12.074;2023-04-21T02:39:46;97446.47;;;8.05;69.54
2841;BME280;53423;49.224;12.074;2023-04-21T02:42:14;97448.50;;;8.11;69.18
2841;BME280;53423;49.224;12.074;2023-04-21T02:44:42;97434.81;;;8.17;69.89
2841;BME280;53423;49.224;12.074;2023-04-21T02:47:14;97440.34;;;8.14;69.59
2841;BME280;53423;49.224;12.074;2023-04-21T02:49:42;97435.56;;;8.10;69.09
2841;BME280;53423;49.224;12.074;2023-04-21T02:52:10;97437.69;;;8.06;68.64
2841;BME280;53423;49.224;12.074;2023-04-21T02:54:38;97440.78;;;8.10;68.77
2841;BME280;53423;49.224;12.074;2023-04-21T02:57:06;97442.75;;;8.08;68.92
2841;BME280;53423;49.224;12.074;2023-04-21T02:59:34;97435.09;;;8.06;69.67
2841;BME280;53423;49.224;12.074;2023-04-21T03:02:01;97452.56;;;8.14;69.73
2841;BME280;53423;49.224;12.074;2023-04-21T03:04:31;97440.84;;;8.18;69.73
2841;BME280;53423;49.224;12.074;2023-04-21T03:07:00;97445.88;;;8.11;70.11
2841;BME280;53423;49.224;12.074;2023-04-21T03:09:27;97437.53;;;8.08;70.09
2841;BME280;53423;49.224;12.074;2023-04-21T03:11:55;97439.47;;;8.06;70.16
2841;BME280;53423;49.224;12.074;2023-04-21T03:14:23;97431.63;;;7.98;70.55
2841;BME280;53423;49.224;12.074;2023-04-21T03:16:51;97433.50;;;7.88;70.33
2841;BME280;53423;49.224;12.074;2023-04-21T03:19:19;97428.56;;;7.85;70.17
2841;BME280;53423;49.224;12.074;2023-04-21T03:21:49;97434.25;;;7.80;70.76
2841;BME280;53423;49.224;12.074;2023-04-21T03:24:16;97432.44;;;7.73;69.79
2841;BME280;53423;49.224;12.074;2023-04-21T03:26:44;97437.19;;;7.77;69.98
2841;BME280;53423;49.224;12.074;2023-04-21T03:29:12;97441.13;;;7.81;70.56
2841;BME280;53423;49.224;12.074;2023-04-21T03:31:40;97442.75;;;7.82;71.30
2841;BME280;53423;49.224;12.074;2023-04-21T03:34:08;97439.38;;;7.90;70.62
2841;BME280;53423;49.224;12.074;2023-04-21T03:36:36;97449.72;;;7.99;71.12
2841;BME280;53423;49.224;12.074;2023-04-21T03:39:05;97448.56;;;8.02;70.71
2841;BME280;53423;49.224;12.074;2023-04-21T03:41:45;97445.53;;;8.06;70.35
2841;BME280;53423;49.224;12.074;2023-04-21T03:44:13;97447.91;;;8.00;71.46
2841;BME280;53423;49.224;12.074;2023-04-21T03:46:41;97455.09;;;7.98;71.03
2841;BME280;53423;49.224;12.074;2023-04-21T03:49:09;97451.50;;;7.99;71.41
2841;BME280;53423;49.224;12.074;2023-04-21T03:51:37;97454.47;;;8.04;71.02
2841;BME280;53423;49.224;12.074;2023-04-21T03:54:06;97455.66;;;8.09;70.55
2841;BME280;53423;49.224;12.074;2023-04-21T03:56:34;97448.34;;;8.13;70.18
2841;BME280;53423;49.224;12.074;2023-04-21T03:59:03;97458.56;;;8.06;70.08
2841;BME280;53423;49.224;12.074;2023-04-21T04:01:32;97460.75;;;7.93;69.55
2841;BME280;53423;49.224;12.074;2023-04-21T04:04:00;97455.38;;;7.95;68.95
2841;BME280;53423;49.224;12.074;2023-04-21T04:06:28;97452.78;;;7.95;70.27
2841;BME280;53423;49.224;12.074;2023-04-21T04:08:57;97454.91;;;7.91;70.58
2841;BME280;53423;49.224;12.074;2023-04-21T04:11:29;97455.66;;;7.84;71.19
2841;BME280;53423;49.224;12.074;2023-04-21T04:13:57;97459.09;;;7.84;70.38
2841;BME280;53423;49.224;12.074;2023-04-21T04:16:25;97453.09;;;7.92;70.06
2841;BME280;53423;49.224;12.074;2023-04-21T04:18:54;97453.59;;;7.95;70.14
2841;BME280;53423;49.224;12.074;2023-04-21T04:21:22;97448.44;;;7.78;69.72
2841;BME280;53423;49.224;12.074;2023-04-21T04:23:50;97454.78;;;7.75;70.50
2841;BME280;53423;49.224;12.074;2023-04-21T04:26:19;97459.78;;;7.69;70.70
2841;BME280;53423;49.224;12.074;2023-04-21T04:28:49;97458.22;;;7.76;70.89
2841;BME280;53423;49.224;12.074;2023-04-21T04:31:17;97457.22;;;7.77;70.98
2841;BME280;53423;49.224;12.074;2023-04-21T04:33:45;97461.19;;;7.81;70.61
2841;BME280;53423;49.224;12.074;2023-04-21T04:36:13;97459.81;;;7.94;70.38
2841;BME280;53423;49.224;12.074;2023-04-21T04:38:42;97465.69;;;7.96;70.73
2841;BME280;53423;49.224;12.074;2023-04-21T04:41:11;97458.50;;;7.98;70.32
2841;BME280;53423;49.224;12.074;2023-04-21T04:43:39;97461.94;;;7.99;70.53
2841;BME280;53423;49.224;12.074;2023-04-21T04:46:08;97462.63;;;8.01;70.51
2841;BME280;53423;49.224;12.074;2023-04-21T04:48:38;97461.44;;;7.95;71.09
2841;BME280;53423;49.224;12.074;2023-04-21T04:51:06;97457.88;;;7.96;71.54
2841;BME280;53423;49.224;12.074;2023-04-21T04:53:34;97459.38;;;8.07;71.09
2841;BME280;53423;49.224;12.074;2023-04-21T04:56:02;97457.47;;;8.17;70.93
2841;BME280;53423;49.224;12.074;2023-04-21T04:58:30;97463.69;;;8.16;70.23
2841;BME280;53423;49.224;12.074;2023-04-21T05:00:58;97461.19;;;8.06;70.17
2841;BME280;53423;49.224;12.074;2023-04-21T05:03:27;97467.13;;;8.16;70.00
2841;BME280;53423;49.224;12.074;2023-04-21T05:05:55;97467.75;;;8.18;70.41
2841;BME280;53423;49.224;12.074;2023-04-21T05:08:23;97471.59;;;8.24;69.41
2841;BME280;53423;49.224;12.074;2023-04-21T05:10:51;97470.47;;;8.26;69.61
2841;BME280;53423;49.224;12.074;2023-04-21T05:13:19;97472.13;;;8.35;69.78
2841;BME280;53423;49.224;12.074;2023-04-21T05:15:47;97471.56;;;8.49;69.78
2841;BME280;53423;49.224;12.074;2023-04-21T05:18:15;97475.94;;;8.49;69.66
2841;BME280;53423;49.224;12.074;2023-04-21T05:20:44;97472.09;;;8.61;69.64
2841;BME280;53423;49.224;12.074;2023-04-21T05:23:12;97472.59;;;8.64;69.31
2841;BME280;53423;49.224;12.074;2023-04-21T05:25:43;97471.50;;;8.75;69.18
2841;BME280;53423;49.224;12.074;2023-04-21T05:28:11;97467.91;;;8.76;68.61
2841;BME280;53423;49.224;12.074;2023-04-21T05:30:39;97462.00;;;8.74;68.71
2841;BME280;53423;49.224;12.074;2023-04-21T05:33:07;97468.25;;;8.81;68.47
2841;BME280;53423;49.224;12.074;2023-04-21T05:35:35;97470.19;;;8.79;68.84
2841;BME280;53423;49.224;12.074;2023-04-21T05:38:05;97463.03;;;8.81;68.53
2841;BME280;53423;49.224;12.074;2023-04-21T05:40:33;97468.09;;;8.91;68.64
2841;BME280;53423;49.224;12.074;2023-04-21T05:43:01;97469.41;;;8.78;69.00
2841;BME280;53423;49.224;12.074;2023-04-21T05:45:28;97471.19;;;8.86;69.28
2841;BME280;53423;49.224;12.074;2023-04-21T05:47:56;97477.28;;;8.95;69.01
2841;BME280;53423;49.224;12.074;2023-04-21T05:50:24;97483.06;;;9.22;68.79
2841;BME280;53423;49.224;12.074;2023-04-21T05:52:59;97469.19;;;9.78;66.76
2841;BME280;53423;49.224;12.074;2023-04-21T05:55:28;97464.72;;;10.27;65.62
2841;BME280;53423;49.224;12.074;2023-04-21T05:57:56;97462.25;;;11.10;64.66
2841;BME280;53423;49.224;12.074;2023-04-21T06:00:24;97459.28;;;11.81;63.09
2841;BME280;53423;49.224;12.074;2023-04-21T06:02:52;97458.91;;;12.21;62.04
2841;BME280;53423;49.224;12.074;2023-04-21T06:05:20;97456.69;;;12.98;60.31
2841;BME280;53423;49.224;12.074;2023-04-21T06:07:48;97455.59;;;13.42;58.32
2841;BME280;53423;49.224;12.074;2023-04-21T06:10:17;97454.28;;;13.53;57.75
2841;BME280;53423;49.224;12.074;2023-04-21T06:12:46;97459.81;;;13.58;56.71
2841;BME280;53423;49.224;12.074;2023-04-21T06:15:14;97451.00;;;13.93;56.58
2841;BME280;53423;49.224;12.074;2023-04-21T06:17:42;97453.97;;;13.62;57.44
2841;BME280;53423;49.224;12.074;2023-04-21T06:20:11;97446.81;;;13.56;57.03
2841;BME280;53423;49.224;12.074;2023-04-21T06:22:39;97459.56;;;13.74;57.08
2841;BME280;53423;49.224;12.074;2023-04-21T06:25:07;97455.56;;;13.85;56.06
2841;BME280;53423;49.224;12.074;2023-04-21T06:27:35;97461.94;;;14.18;56.04
2841;BME280;53423;49.224;12.074;2023-04-21T06:30:05;97448.19;;;14.97;54.30
2841;BME280;53423;49.224;12.074;2023-04-21T06:32:33;97443.97;;;15.09;53.71
2841;BME280;53423;49.224;12.074;2023-04-21T06:35:01;97440.75;;;14.66;53.62
2841;BME280;53423;49.224;12.074;2023-04-21T06:37:29;97445.88;;;14.13;55.20
2841;BME280;53423;49.224;12.074;2023-04-21T06:39:57;97441.22;;;14.42;54.48
2841;BME280;53423;49.224;12.074;2023-04-21T06:42:25;97434.50;;;14.40;54.02
2841;BME280;53423;49.224;12.074;2023-04-21T06:44:53;97444.03;;;14.13;55.04
2841;BME280;53423;49.224;12.074;2023-04-21T06:47:23;97455.06;;;14.23;55.25
2841;BME280;53423;49.224;12.074;2023-04-21T06:49:51;97453.00;;;13.91;54.90
2841;BME280;53423;49.224;12.074;2023-04-21T06:52:19;97447.13;;;13.89;55.51
2841;BME280;53423;49.224;12.074;2023-04-21T06:54:47;97449.56;;;13.91;55.39
2841;BME280;53423;49.224;12.074;2023-04-21T06:57:15;97446.09;;;13.90;56.14
2841;BME280;53423;49.224;12.074;2023-04-21T06:59:43;97443.53;;;14.24;55.97
2841;BME280;53423;49.224;12.074;2023-04-21T07:02:11;97436.59;;;14.91;53.88
2841;BME280;53423;49.224;12.074;2023-04-21T07:04:40;97444.28;;;15.40;52.32
2841;BME280;53423;49.224;12.074;2023-04-21T07:07:08;97440.28;;;15.64;52.02
2841;BME280;53423;49.224;12.074;2023-04-21T07:09:36;97438.63;;;16.15;50.66
2841;BME280;53423;49.224;12.074;2023-04-21T07:12:04;97439.00;;;16.58;49.92
2841;BME280;53423;49.224;12.074;2023-04-21T07:14:32;97446.53;;;16.41;50.30
2841;BME280;53423;49.224;12.074;2023-04-21T07:17:00;97437.41;;;17.01;48.82
2841;BME280;53423;49.224;12.074;2023-04-21T07:19:28;97445.19;;;17.71;47.89
2841;BME280;53423;49.224;12.074;2023-04-21T07:21:57;97437.91;;;18.58;44.90
2841;BME280;53423;49.224;12.074;2023-04-21T07:24:25;97433.28;;;19.20;44.11
2841;BME280;53423;49.224;12.074;2023-04-21T07:26:53;97431.22;;;19.93;42.32
2841;BME280;53423;49.224;12.074;2023-04-21T07:29:21;97430.78;;;19.96;42.51
2841;BME280;53423;49.224;12.074;2023-04-21T07:31:49;97433.28;;;19.79;41.01
2841;BME280;53423;49.224;12.074;2023-04-21T07:34:17;97437.63;;;19.32;42.78
2841;BME280;53423;49.224;12.074;2023-04-21T07:36:45;97423.59;;;20.65;39.38
2841;BME280;53423;49.224;12.074;2023-04-21T07:39:14;97417.38;;;21.39;37.15
2841;BME280;53423;49.224;12.074;2023-04-21T07:41:43;97429.91;;;20.48;37.78
2841;BME280;53423;49.224;12.074;2023-04-21T07:44:10;97428.16;;;20.42;38.54
2841;BME280;53423;49.224;12.074;2023-04-21T07:46:38;97424.44;;;20.66;38.36
2841;BME280;53423;49.224;12.074;2023-04-21T07:49:06;97419.69;;;20.45;37.60
2841;BME280;53423;49.224;12.074;2023-04-21T07:51:34;97419.94;;;20.43;38.91
2841;BME280;53423;49.224;12.074;2023-04-21T07:54:02;97418.22;;;21.12;37.60
2841;BME280;53423;49.224;12.074;2023-04-21T07:56:32;97417.59;;;22.10;34.87
2841;BME280;53423;49.224;12.074;2023-04-21T07:59:00;97411.25;;;22.00;35.73
2841;BME280;53423;49.224;12.074;2023-04-21T08:01:28;97422.63;;;21.34;35.65
2841;BME280;53423;49.224;12.074;2023-04-21T08:03:55;97411.91;;;21.62;36.72
2841;BME280;53423;49.224;12.074;2023-04-21T08:06:24;97418.88;;;22.08;35.12
2841;BME280;53423;49.224;12.074;2023-04-21T08:08:53;97420.53;;;20.85;37.18
2841;BME280;53423;49.224;12.074;2023-04-21T08:11:21;97418.59;;;22.59;34.85
2841;BME280;53423;49.224;12.074;2023-04-21T08:13:50;97419.13;;;22.99;33.74
2841;BME280;53423;49.224;12.074;2023-04-21T08:16:18;97412.13;;;22.98;34.08
2841;BME280;53423;49.224;12.074;2023-04-21T08:18:47;97414.97;;;23.30;33.23
2841;BME280;53423;49.224;12.074;2023-04-21T08:21:15;97415.22;;;23.12;32.43
2841;BME280;53423;49.224;12.074;2023-04-21T08:23:43;97417.28;;;22.62;33.94
2841;BME280;53423;49.224;12.074;2023-04-21T08:26:13;97407.31;;;22.19;34.79
2841;BME280;53423;49.224;12.074;2023-04-21T08:28:41;97402.69;;;22.91;32.69
2841;BME280;53423;49.224;12.074;2023-04-21T08:31:10;97406.44;;;23.11;32.82
2841;BME280;53423;49.224;12.074;2023-04-21T08:33:38;97401.56;;;22.65;30.97
2841;BME280;53423;49.224;12.074;2023-04-21T08:36:19;97411.34;;;22.22;33.51
2841;BME280;53423;49.224;12.074;2023-04-21T08:38:55;97410.16;;;22.89;31.72
2841;BME280;53423;49.224;12.074;2023-04-21T08:41:24;97409.75;;;24.40;29.45
2841;BME280;53423;49.224;12.074;2023-04-21T08:43:52;97412.78;;;23.80;30.55
2841;BME280;53423;49.224;12.074;2023-04-21T08:46:21;97408.78;;;23.56;30.03
2841;BME280;53423;49.224;12.074;2023-04-21T08:48:50;97415.31;;;22.95;30.56
2841;BME280;53423;49.224;12.074;2023-04-21T08:51:22;97403.56;;;24.71;29.08
2841;BME280;53423;49.224;12.074;2023-04-21T08:53:50;97411.31;;;24.31;29.96
2841;BME280;53423;49.224;12.074;2023-04-21T08:56:18;97411.75;;;24.18;29.77
2841;BME280;53423;49.224;12.074;2023-04-21T08:58:46;97406.44;;;24.65;28.04
2841;BME280;53423;49.224;12.074;2023-04-21T09:01:14;97407.03;;;24.77;29.28
2841;BME280;53423;49.224;12.074;2023-04-21T09:03:43;97407.06;;;25.38;29.09
2841;BME280;53423;49.224;12.074;2023-04-21T09:06:11;97399.88;;;26.29;26.39
2841;BME280;53423;49.224;12.074;2023-04-21T09:08:42;97405.19;;;26.54;25.92
2841;BME280;53423;49.224;12.074;2023-04-21T09:11:12;97407.38;;;25.87;26.93
2841;BME280;53423;49.224;12.074;2023-04-21T09:13:42;97403.00;;;25.36;28.21
2841;BME280;53423;49.224;12.074;2023-04-21T09:16:17;97403.63;;;26.18;27.54
2841;BME280;53423;49.224;12.074;2023-04-21T09:18:48;97402.66;;;26.98;26.30
2841;BME280;53423;49.224;12.074;2023-04-21T09:21:18;97393.63;;;27.33;24.48
2841;BME280;53423;49.224;12.074;2023-04-21T09:23:47;97398.19;;;28.15;23.79
2841;BME280;53423;49.224;12.074;2023-04-21T09:26:16;97392.38;;;27.59;24.84
2841;BME280;53423;49.224;12.074;2023-04-21T09:28:45;97400.28;;;26.81;26.52
2841;BME280;53423;49.224;12.074;2023-04-21T09:31:14;97397.16;;;25.79;27.67
2841;BME280;53423;49.224;12.074;2023-04-21T09:33:51;97391.94;;;26.88;25.51
2841;BME280;53423;49.224;12.074;2023-04-21T09:36:26;97393.91;;;27.26;25.16
2841;BME280;53423;49.224;12.074;2023-04-21T09:38:55;97387.56;;;27.56;25.14
2841;BME280;53423;49.224;12.074;2023-04-21T09:41:44;97397.16;;;25.74;26.25
2841;BME280;53423;49.224;12.074;2023-04-21T09:44:13;97389.63;;;25.56;25.73
2841;BME280;53423;49.224;12.074;2023-04-21T09:46:47;97385.03;;;25.41;26.01
2841;BME280;53423;49.224;12.074;2023-04-21T09:49:17;97393.94;;;25.97;27.25
2841;BME280;53423;49.224;12.074;2023-04-21T09:51:45;97384.94;;;27.46;26.23
2841;BME280;53423;49.224;12.074;2023-04-21T09:54:17;97381.81;;;28.06;23.70
2841;BME280;53423;49.224;12.074;2023-04-21T09:56:52;97386.97;;;27.10;23.63
2841;BME280;53423;49.224;12.074;2023-04-21T09:59:24;97377.06;;;28.79;22.71
2841;BME280;53423;49.224;12.074;2023-04-21T10:01:54;97377.00;;;28.60;23.29
2841;BME280;53423;49.224;12.074;2023-04-21T10:04:26;97367.03;;;29.03;22.18
2841;BME280;53423;49.224;12.074;2023-04-21T10:06:56;97374.97;;;27.85;23.51
2841;BME280;53423;49.224;12.074;2023-04-21T10:09:32;97377.81;;;28.84;21.68
2841;BME280;53423;49.224;12.074;2023-04-21T10:12:03;97365.03;;;29.32;21.51
2841;BME280;53423;49.224;12.074;2023-04-21T10:14:34;97360.50;;;30.48;20.98
2841;BME280;53423;49.224;12.074;2023-04-21T10:17:03;97359.88;;;28.41;24.26
2841;BME280;53423;49.224;12.074;2023-04-21T10:19:35;97363.84;;;27.96;23.00
2841;BME280;53423;49.224;12.074;2023-04-21T10:22:06;97359.34;;;29.71;22.29
2841;BME280;53423;49.224;12.074;2023-04-21T10:24:36;97354.38;;;30.69;20.83
2841;BME280;53423;49.224;12.074;2023-04-21T10:27:08;97357.75;;;26.88;23.88
2841;BME280;53423;49.224;12.074;2023-04-21T10:29:37;97359.00;;;27.11;25.16
2841;BME280;53423;49.224;12.074;2023-04-21T10:32:31;97360.28;;;26.50;24.85
2841;BME280;53423;49.224;12.074;2023-04-21T10:35:09;97359.22;;;29.01;23.26
2841;BME280;53423;49.224;12.074;2023-04-21T10:37:39;97351.41;;;30.84;21.37
2841;BME280;53423;49.224;12.074;2023-04-21T10:40:31;97347.09;;;29.22;20.97
2841;BME280;53423;49.224;12.074;2023-04-21T10:46:31;97352.88;;;27.83;23.25
2841;BME280;53423;49.224;12.074;2023-04-21T10:49:04;97350.69;;;27.03;25.17
2841;BME280;53423;49.224;12.074;2023-04-21T10:54:24;97351.63;;;27.37;24.44
2841;BME280;53423;49.224;12.074;2023-04-21T10:56:53;97347.25;;;27.41;23.88
2841;BME280;53423;49.224;12.074;2023-04-21T10:59:22;97348.75;;;26.44;26.31
2841;BME280;53423;49.224;12.074;2023-04-21T11:01:53;97352.56;;;25.53;27.37
2841;BME280;53423;49.224;12.074;2023-04-21T11:04:21;97350.41;;;25.95;27.66
2841;BME280;53423;49.224;12.074;2023-04-21T11:07:05;97361.81;;;25.00;28.84
2841;BME280;53423;49.224;12.074;2023-04-21T11:09:34;97362.25;;;24.25;29.22
2841;BME280;53423;49.224;12.074;2023-04-21T11:12:03;97359.84;;;23.92;30.42
2841;BME280;53423;49.224;12.074;2023-04-21T11:14:34;97348.88;;;24.77;29.35
2841;BME280;53423;49.224;12.074;2023-04-21T11:17:03;97353.09;;;25.40;27.48
2841;BME280;53423;49.224;12.074;2023-04-21T11:19:31;97352.28;;;26.00;26.90
2841;BME280;53423;49.224;12.074;2023-04-21T11:21:59;97340.38;;;26.61;26.36
2841;BME280;53423;49.224;12.074;2023-04-21T11:24:30;97338.66;;;27.39;25.62
2841;BME280;53423;49.224;12.074;2023-04-21T11:26:58;97337.22;;;27.51;24.65
2841;BME280;53423;49.224;12.074;2023-04-21T11:29:28;97337.66;;;27.25;24.51
2841;BME280;53423;49.224;12.074;2023-04-21T11:31:55;97337.47;;;27.93;23.93
2841;BME280;53423;49.224;12.074;2023-04-21T11:34:25;97331.28;;;27.54;25.05
2841;BME280;53423;49.224;12.074;2023-04-21T11:36:54;97327.53;;;27.84;24.49
2841;BME280;53423;49.224;12.074;2023-04-21T11:39:22;97335.25;;;27.28;24.23
2841;BME280;53423;49.224;12.074;2023-04-21T11:41:51;97337.31;;;24.72;26.72
2841;BME280;53423;49.224;12.074;2023-04-21T11:44:33;97332.63;;;25.19;27.41
2841;BME280;53423;49.224;12.074;2023-04-21T11:47:11;97330.09;;;23.89;30.29
2841;BME280;53423;49.224;12.074;2023-04-21T11:49:44;97325.53;;;23.89;30.56
2841;BME280;53423;49.224;12.074;2023-04-21T11:52:26;97320.50;;;24.96;28.34
2841;BME280;53423;49.224;12.074;2023-04-21T11:54:56;97314.97;;;25.68;28.24
2841;BME280;53423;49.224;12.074;2023-04-21T11:57:27;97312.28;;;25.88;27.60
2841;BME280;53423;49.224;12.074;2023-04-21T11:59:57;97302.50;;;27.06;24.86
2841;BME280;53423;49.224;12.074;2023-04-21T12:02:27;97310.09;;;26.20;27.81
2841;BME280;53423;49.224;12.074;2023-04-21T12:05:00;97299.03;;;26.37;26.08
2841;BME280;53423;49.224;12.074;2023-04-21T12:07:30;97300.50;;;27.27;25.38
2841;BME280;53423;49.224;12.074;2023-04-21T12:09:58;97291.25;;;27.43;25.94
2841;BME280;53423;49.224;12.074;2023-04-21T12:12:28;97294.56;;;27.30;25.14
2841;BME280;53423;49.224;12.074;2023-04-21T12:14:56;97303.16;;;25.59;27.77
2841;BME280;53423;49.224;12.074;2023-04-21T12:17:24;97296.09;;;25.03;27.95
2841;BME280;53423;49.224;12.074;2023-04-21T12:19:52;97292.66;;;25.27;29.75
2841;BME280;53423;49.224;12.074;2023-04-21T12:22:20;97287.59;;;25.36;30.31
2841;BME280;53423;49.224;12.074;2023-04-21T12:24:49;97287.75;;;24.89;28.18
2841;BME280;53423;49.224;12.074;2023-04-21T12:27:17;97277.34;;;24.31;30.25
2841;BME280;53423;49.224;12.074;2023-04-21T12:29:46;97273.81;;;24.25;28.00
2841;BME280;53423;49.224;12.074;2023-04-21T12:32:14;97274.75;;;24.51;27.18
2841;BME280;53423;49.224;12.074;2023-04-21T12:34:42;97272.78;;;24.36;29.77
2841;BME280;53423;49.224;12.074;2023-04-21T12:37:10;97279.84;;;23.64;28.47
2841;BME280;53423;49.224;12.074;2023-04-21T12:39:38;97275.81;;;23.62;29.37
2841;BME280;53423;49.224;12.074;2023-04-21T12:42:06;97268.75;;;24.29;29.28
2841;BME280;53423;49.224;12.074;2023-04-21T12:44:34;97266.22;;;24.02;27.57
2841;BME280;53423;49.224;12.074;2023-04-21T12:47:04;97266.16;;;23.61;28.82
2841;BME280;53423;49.224;12.074;2023-04-21T12:49:34;97274.88;;;23.14;31.12
2841;BME280;53423;49.224;12.074;2023-04-21T12:52:03;97257.47;;;23.80;29.56
2841;BME280;53423;49.224;12.074;2023-04-21T12:54:32;97250.19;;;24.12;32.09
2841;BME280;53423;49.224;12.074;2023-04-21T12:57:00;97253.22;;;24.26;29.91
2841;BME280;53423;49.224;12.074;2023-04-21T12:59:28;97260.13;;;23.12;30.73
2841;BME280;53423;49.224;12.074;2023-04-21T13:01:56;97250.53;;;23.16;30.88
2841;BME280;53423;49.224;12.074;2023-04-21T13:04:25;97254.81;;;23.44;30.53
2841;BME280;53423;49.224;12.074;2023-04-21T13:06:53;97246.38;;;24.03;28.20
2841;BME280;53423;49.224;12.074;2023-04-21T13:09:21;97248.31;;;23.71;29.11
2841;BME280;53423;49.224;12.074;2023-04-21T13:11:49;97249.34;;;23.28;33.55
2841;BME280;53423;49.224;12.074;2023-04-21T13:14:17;97251.41;;;22.95;32.98
2841;BME280;53423;49.224;12.074;2023-04-21T13:16:45;97242.00;;;23.19;35.04
2841;BME280;53423;49.224;12.074;2023-04-21T13:19:13;97240.00;;;23.73;32.43
2841;BME280;53423;49.224;12.074;2023-04-21T13:21:42;97236.69;;;23.97;30.53